Hauptseite
METAR-TAF:

METAR-TAF

Flughäfen :

RAF Shawbury

Shawbury, England

Breite: 52-48N, Länge: 002-40W, Höhe: 76 m

Beobachtung

Neuester Wetterbericht von vor 44 Minuten, um 03:50 UTC
Wind 10 kt aus Süd/Südost
Temperatur 9°C
Luftfeuchtigkeit 87%
Luftdruck 1012 hPa
Sichtweite 10 km oder mehr

METAR: EGOS 170350Z AUTO 15010KT 9999 FEW016/// 09/07 Q1012

Zeit: 04:34 (04:34 UTC)


TAF: fehlend

Wetterbeobachtungen und Prognosen von mehr als 4000 Flughäfen (METAR und TAF Bericht).

Die verfügbaren Stationen werden durch gelbe und rote Markierungen auf der Karte dargestellt.

Führen Sie die Maus auf sie, um den Namen der Station zu sehen.

Darauf klicken, um die Beobachtung von Wetterbeobachtungen und Prognosen zu sehen.

Um die Karte zu ändern : klicken Sie auf den grünen Tasten mit einem schwarzen Kreuz Zum Vergrößern, auf den grünen Button mit einem Gedankenstrich zu verkleinern, oder auf die grünen Pfeile für benachbarte Karten.


METAR-TAF: